WZZ2WA LIEO-EPWA
Flight info
| Callsign | WZZ2WA |
|---|---|
| Flight time | 2h 5m |
| Altitude | 34000 |
| Route | BATOX DCT TINTO DCT NIKOL/N0444F350 DCT ABLOM DCT BABKO DCT ORTEB/N0452F360 DCT KONZI DCT LOGDA |
| Aircraft | A21N/M-SDE2E3FGHIRWXY/LB1 |
Departure
| Time | 2026-05-08 12:49 |
|---|---|
| Airport | Olbia Costa Smeralda Airport (LIEO) |
Arrival
| Time | 2026-05-08 14:55 |
|---|---|
| Airport | Warsaw Chopin Airport (EPWA) |
| Time | Latitude | Longitude | Altitude | Speed | Heading |
|---|---|---|---|---|---|
| 2026-05-08 12:22 | 40.90263 | 9.51707 | 49 ft | 0 kts | 326° |
| 2026-05-08 12:40 | 40.90259 | 9.51710 | 50 ft | 2 kts | 326° |
| 2026-05-08 12:41 | 40.90247 | 9.51721 | 50 ft | 2 kts | 326° |
| 2026-05-08 12:41 | 40.90234 | 9.51732 | 50 ft | 2 kts | 326° |
| 2026-05-08 12:41 | 40.90221 | 9.51738 | 50 ft | 2 kts | 12° |
| 2026-05-08 12:41 | 40.90207 | 9.51729 | 50 ft | 2 kts | 53° |
| 2026-05-08 12:42 | 40.90205 | 9.51723 | 50 ft | 0 kts | 61° |
| 2026-05-08 12:44 | 40.90210 | 9.51735 | 50 ft | 4 kts | 61° |
| 2026-05-08 12:44 | 40.90223 | 9.51786 | 50 ft | 6 kts | 101° |
| 2026-05-08 12:45 | 40.90193 | 9.51836 | 50 ft | 7 kts | 124° |
| 2026-05-08 12:45 | 40.90176 | 9.51932 | 49 ft | 12 kts | 92° |
| 2026-05-08 12:45 | 40.90212 | 9.52032 | 49 ft | 11 kts | 55° |
| 2026-05-08 12:45 | 40.90263 | 9.52127 | 49 ft | 15 kts | 56° |
| 2026-05-08 12:46 | 40.90332 | 9.52257 | 49 ft | 17 kts | 54° |
| 2026-05-08 12:46 | 40.90400 | 9.52388 | 49 ft | 17 kts | 57° |
| 2026-05-08 12:46 | 40.90471 | 9.52526 | 49 ft | 18 kts | 56° |
| 2026-05-08 12:46 | 40.90545 | 9.52665 | 49 ft | 19 kts | 55° |
| 2026-05-08 12:47 | 40.90620 | 9.52808 | 49 ft | 18 kts | 55° |
| 2026-05-08 12:47 | 40.90694 | 9.52944 | 49 ft | 18 kts | 55° |
| 2026-05-08 12:47 | 40.90761 | 9.53083 | 49 ft | 17 kts | 70° |
| 2026-05-08 12:47 | 40.90727 | 9.53222 | 49 ft | 17 kts | 144° |
| 2026-05-08 12:48 | 40.90648 | 9.53250 | 49 ft | 10 kts | 223° |
| 2026-05-08 12:48 | 40.90596 | 9.53158 | 49 ft | 18 kts | 235° |
| 2026-05-08 12:48 | 40.90379 | 9.52734 | 49 ft | 92 kts | 235° |
| 2026-05-08 12:48 | 40.89888 | 9.51800 | 50 ft | 154 kts | 236° |
| 2026-05-08 12:49 | 40.89194 | 9.50489 | 315 ft | 181 kts | 237° |
| 2026-05-08 12:49 | 40.88459 | 9.49108 | 909 ft | 188 kts | 238° |
| 2026-05-08 12:49 | 40.87722 | 9.47682 | 1606 ft | 192 kts | 239° |
| 2026-05-08 12:49 | 40.87000 | 9.46256 | 2242 ft | 187 kts | 239° |
| 2026-05-08 12:50 | 40.86266 | 9.44790 | 2616 ft | 197 kts | 239° |
| 2026-05-08 12:50 | 40.85488 | 9.43220 | 2871 ft | 213 kts | 238° |
| 2026-05-08 12:50 | 40.84627 | 9.41552 | 3149 ft | 229 kts | 237° |
| 2026-05-08 12:50 | 40.83741 | 9.39688 | 3362 ft | 249 kts | 250° |
| 2026-05-08 12:51 | 40.83551 | 9.37419 | 3775 ft | 257 kts | 284° |
| 2026-05-08 12:51 | 40.85949 | 9.34115 | 4709 ft | 272 kts | 338° |
| 2026-05-08 12:51 | 40.87730 | 9.33119 | 5258 ft | 281 kts | 337° |
| 2026-05-08 12:52 | 40.89532 | 9.32048 | 5898 ft | 286 kts | 336° |
| 2026-05-08 12:52 | 40.93042 | 9.29808 | 7555 ft | 280 kts | 335° |
| 2026-05-08 12:52 | 40.94788 | 9.28682 | 8198 ft | 283 kts | 335° |
| 2026-05-08 12:53 | 40.96606 | 9.27723 | 8822 ft | 285 kts | 351° |
| 2026-05-08 12:53 | 40.98552 | 9.27961 | 9429 ft | 283 kts | 24° |
| 2026-05-08 12:53 | 41.00079 | 9.29501 | 10024 ft | 283 kts | 52° |
| 2026-05-08 12:53 | 41.00970 | 9.31827 | 10451 ft | 292 kts | 73° |
| 2026-05-08 12:54 | 41.01546 | 9.34508 | 10732 ft | 307 kts | 73° |
| 2026-05-08 12:54 | 41.02162 | 9.37264 | 10994 ft | 322 kts | 72° |
| 2026-05-08 12:54 | 41.02841 | 9.40169 | 11262 ft | 336 kts | 72° |
| 2026-05-08 12:54 | 41.03556 | 9.43141 | 11643 ft | 345 kts | 71° |
| 2026-05-08 12:55 | 41.04290 | 9.46157 | 12168 ft | 350 kts | 71° |
| 2026-05-08 12:55 | 41.05048 | 9.49245 | 12695 ft | 354 kts | 71° |
| 2026-05-08 12:55 | 41.05813 | 9.52348 | 13168 ft | 359 kts | 70° |
| 2026-05-08 12:55 | 41.06589 | 9.55488 | 13659 ft | 364 kts | 70° |
| 2026-05-08 12:56 | 41.07389 | 9.58719 | 14170 ft | 368 kts | 70° |
| 2026-05-08 12:56 | 41.08181 | 9.61930 | 14653 ft | 372 kts | 70° |
| 2026-05-08 12:56 | 41.08991 | 9.65219 | 15116 ft | 377 kts | 71° |
| 2026-05-08 12:56 | 41.09798 | 9.68496 | 15589 ft | 381 kts | 71° |
| 2026-05-08 12:57 | 41.10624 | 9.71853 | 16052 ft | 385 kts | 71° |
| 2026-05-08 12:57 | 41.11453 | 9.75229 | 16512 ft | 389 kts | 71° |
| 2026-05-08 12:57 | 41.12289 | 9.78639 | 16967 ft | 392 kts | 71° |
| 2026-05-08 12:57 | 41.13139 | 9.82109 | 17399 ft | 396 kts | 71° |
| 2026-05-08 12:58 | 41.13986 | 9.85569 | 17814 ft | 400 kts | 71° |
| 2026-05-08 12:58 | 41.14848 | 9.89094 | 18213 ft | 404 kts | 70° |
| 2026-05-08 12:58 | 41.15711 | 9.92642 | 18612 ft | 407 kts | 70° |
| 2026-05-08 12:58 | 41.16576 | 9.96202 | 19012 ft | 411 kts | 70° |
| 2026-05-08 12:59 | 41.17454 | 9.99811 | 19393 ft | 414 kts | 70° |
| 2026-05-08 12:59 | 41.18336 | 10.03452 | 19767 ft | 418 kts | 70° |
| 2026-05-08 12:59 | 41.19226 | 10.07137 | 20112 ft | 422 kts | 70° |
| 2026-05-08 12:59 | 41.20116 | 10.10815 | 20467 ft | 425 kts | 70° |
| 2026-05-08 13:00 | 41.21027 | 10.14568 | 20851 ft | 428 kts | 69° |
| 2026-05-08 13:00 | 41.22049 | 10.18277 | 21200 ft | 430 kts | 66° |
| 2026-05-08 13:00 | 41.23145 | 10.21998 | 21551 ft | 433 kts | 66° |
| 2026-05-08 13:00 | 41.24248 | 10.25708 | 21865 ft | 437 kts | 66° |
| 2026-05-08 13:01 | 41.25353 | 10.29427 | 22194 ft | 440 kts | 65° |
| 2026-05-08 13:01 | 41.26482 | 10.33241 | 22522 ft | 443 kts | 66° |
| 2026-05-08 13:01 | 41.27605 | 10.37047 | 22844 ft | 446 kts | 66° |
| 2026-05-08 13:01 | 41.28733 | 10.40884 | 23163 ft | 449 kts | 66° |
| 2026-05-08 13:02 | 41.29861 | 10.44732 | 23497 ft | 451 kts | 66° |
| 2026-05-08 13:02 | 41.31007 | 10.48647 | 23829 ft | 453 kts | 65° |
| 2026-05-08 13:02 | 41.32139 | 10.52521 | 24122 ft | 456 kts | 65° |
| 2026-05-08 13:02 | 41.33293 | 10.56481 | 24431 ft | 459 kts | 65° |
| 2026-05-08 13:03 | 41.34447 | 10.60431 | 24753 ft | 461 kts | 65° |
| 2026-05-08 13:03 | 41.35607 | 10.64417 | 25047 ft | 464 kts | 65° |
| 2026-05-08 13:03 | 41.36766 | 10.68411 | 25335 ft | 466 kts | 66° |
| 2026-05-08 13:03 | 41.37938 | 10.72452 | 25601 ft | 469 kts | 66° |
| 2026-05-08 13:04 | 41.39097 | 10.76460 | 25877 ft | 471 kts | 66° |
| 2026-05-08 13:04 | 41.40270 | 10.80520 | 26150 ft | 473 kts | 66° |
| 2026-05-08 13:04 | 41.41447 | 10.84601 | 26399 ft | 475 kts | 66° |
| 2026-05-08 13:04 | 41.42637 | 10.88733 | 26653 ft | 478 kts | 66° |
| 2026-05-08 13:05 | 41.43820 | 10.92856 | 26897 ft | 480 kts | 65° |
| 2026-05-08 13:05 | 41.45006 | 10.96983 | 27142 ft | 482 kts | 66° |
| 2026-05-08 13:05 | 41.46212 | 11.01183 | 27403 ft | 483 kts | 65° |
| 2026-05-08 13:05 | 41.47709 | 11.05140 | 27616 ft | 478 kts | 51° |
| 2026-05-08 13:06 | 41.49802 | 11.08478 | 27852 ft | 469 kts | 37° |
| 2026-05-08 13:06 | 41.52343 | 11.11123 | 28102 ft | 462 kts | 28° |
| 2026-05-08 13:06 | 41.55008 | 11.13509 | 28334 ft | 463 kts | 26° |
| 2026-05-08 13:06 | 41.57689 | 11.15866 | 28581 ft | 464 kts | 26° |
| 2026-05-08 13:07 | 41.60377 | 11.18240 | 28792 ft | 467 kts | 26° |
| 2026-05-08 13:07 | 41.63101 | 11.20667 | 29046 ft | 469 kts | 27° |
| 2026-05-08 13:07 | 41.65788 | 11.23081 | 29303 ft | 470 kts | 27° |
| 2026-05-08 13:07 | 41.68509 | 11.25542 | 29531 ft | 472 kts | 27° |
| 2026-05-08 13:08 | 41.71235 | 11.28017 | 29748 ft | 473 kts | 27° |
| 2026-05-08 13:08 | 41.73923 | 11.30463 | 29961 ft | 475 kts | 27° |
| 2026-05-08 13:08 | 41.76667 | 11.32968 | 30213 ft | 476 kts | 27° |
| 2026-05-08 13:08 | 41.79384 | 11.35450 | 30560 ft | 474 kts | 27° |
| 2026-05-08 13:09 | 41.82097 | 11.37934 | 30871 ft | 473 kts | 27° |
| 2026-05-08 13:09 | 41.84826 | 11.40436 | 31155 ft | 473 kts | 27° |
| 2026-05-08 13:09 | 41.87521 | 11.42908 | 31461 ft | 472 kts | 27° |
| 2026-05-08 13:09 | 41.90239 | 11.45402 | 31732 ft | 472 kts | 27° |
| 2026-05-08 13:10 | 41.92913 | 11.47859 | 32027 ft | 472 kts | 27° |
| 2026-05-08 13:10 | 41.95633 | 11.50361 | 32339 ft | 470 kts | 26° |
| 2026-05-08 13:10 | 41.98320 | 11.52837 | 32599 ft | 470 kts | 26° |
| 2026-05-08 13:10 | 42.01014 | 11.55317 | 32816 ft | 471 kts | 26° |
| 2026-05-08 13:11 | 42.03715 | 11.57808 | 33047 ft | 472 kts | 26° |
| 2026-05-08 13:11 | 42.06422 | 11.60306 | 33231 ft | 473 kts | 26° |
| 2026-05-08 13:11 | 42.09106 | 11.62787 | 33454 ft | 474 kts | 26° |
| 2026-05-08 13:11 | 42.11849 | 11.65326 | 33682 ft | 474 kts | 27° |
| 2026-05-08 13:12 | 42.14533 | 11.67812 | 33862 ft | 475 kts | 27° |
| 2026-05-08 13:12 | 42.17291 | 11.70369 | 33946 ft | 476 kts | 26° |
| 2026-05-08 13:12 | 42.22721 | 11.75408 | 33958 ft | 478 kts | 27° |
| 2026-05-08 13:13 | 42.28178 | 11.80486 | 33969 ft | 478 kts | 27° |
| 2026-05-08 13:13 | 42.33625 | 11.85571 | 33983 ft | 477 kts | 27° |
| 2026-05-08 13:14 | 42.39109 | 11.90694 | 33985 ft | 478 kts | 27° |
| 2026-05-08 13:14 | 42.44555 | 11.95795 | 33970 ft | 478 kts | 28° |
| 2026-05-08 13:15 | 42.50021 | 12.00929 | 33981 ft | 478 kts | 28° |
| 2026-05-08 13:15 | 42.55439 | 12.06027 | 33988 ft | 477 kts | 28° |
| 2026-05-08 13:16 | 42.60884 | 12.11161 | 33986 ft | 478 kts | 28° |
| 2026-05-08 13:16 | 42.66351 | 12.16327 | 33973 ft | 478 kts | 28° |
| 2026-05-08 13:17 | 42.71770 | 12.21461 | 33981 ft | 477 kts | 29° |
| 2026-05-08 13:17 | 42.77181 | 12.26599 | 33980 ft | 476 kts | 29° |
| 2026-05-08 13:18 | 42.82603 | 12.31753 | 33982 ft | 476 kts | 29° |
| 2026-05-08 13:18 | 42.88012 | 12.36912 | 33982 ft | 477 kts | 30° |
| 2026-05-08 13:19 | 42.93448 | 12.42105 | 33984 ft | 476 kts | 30° |
| 2026-05-08 13:19 | 42.98848 | 12.47276 | 33986 ft | 476 kts | 30° |
| 2026-05-08 13:20 | 43.04265 | 12.52478 | 33988 ft | 476 kts | 30° |
| 2026-05-08 13:20 | 43.09644 | 12.57647 | 33994 ft | 476 kts | 30° |
| 2026-05-08 13:21 | 43.15080 | 12.62885 | 34006 ft | 477 kts | 30° |
| 2026-05-08 13:21 | 43.20489 | 12.68107 | 34002 ft | 478 kts | 31° |
| 2026-05-08 13:22 | 43.25924 | 12.73376 | 34010 ft | 478 kts | 32° |
| 2026-05-08 13:22 | 43.31323 | 12.78613 | 33999 ft | 479 kts | 32° |
| 2026-05-08 13:23 | 43.36745 | 12.83879 | 34011 ft | 479 kts | 32° |
| 2026-05-08 13:23 | 43.42196 | 12.89198 | 33998 ft | 480 kts | 32° |
| 2026-05-08 13:24 | 43.47610 | 12.94486 | 34009 ft | 480 kts | 32° |
| 2026-05-08 13:24 | 43.53026 | 12.99788 | 34000 ft | 480 kts | 33° |
| 2026-05-08 13:25 | 43.58459 | 13.05122 | 34008 ft | 480 kts | 33° |
| 2026-05-08 13:25 | 43.63892 | 13.10464 | 34007 ft | 480 kts | 33° |
| 2026-05-08 13:26 | 43.69314 | 13.15807 | 34000 ft | 480 kts | 33° |
| 2026-05-08 13:26 | 43.74732 | 13.21157 | 34021 ft | 479 kts | 34° |
| 2026-05-08 13:27 | 43.80137 | 13.26510 | 34020 ft | 479 kts | 34° |
| 2026-05-08 13:27 | 43.85507 | 13.31841 | 34018 ft | 478 kts | 34° |
| 2026-05-08 13:28 | 43.90897 | 13.37206 | 34023 ft | 478 kts | 34° |
| 2026-05-08 13:28 | 43.96286 | 13.42581 | 34028 ft | 478 kts | 34° |
| 2026-05-08 13:29 | 44.01672 | 13.47965 | 34359 ft | 479 kts | 34° |
| 2026-05-08 13:29 | 44.04356 | 13.50654 | 34655 ft | 477 kts | 34° |
| 2026-05-08 13:29 | 44.07049 | 13.53355 | 34865 ft | 476 kts | 34° |
| 2026-05-08 13:30 | 44.09718 | 13.56037 | 35000 ft | 476 kts | 34° |
| 2026-05-08 13:30 | 44.12382 | 13.58713 | 35011 ft | 476 kts | 34° |
| 2026-05-08 13:30 | 44.17752 | 13.64121 | 35020 ft | 476 kts | 34° |
| 2026-05-08 13:31 | 44.23184 | 13.69378 | 35024 ft | 476 kts | 31° |
| 2026-05-08 13:31 | 44.28859 | 13.74079 | 35023 ft | 476 kts | 29° |
| 2026-05-08 13:32 | 44.34604 | 13.78745 | 35022 ft | 476 kts | 29° |
| 2026-05-08 13:32 | 44.40293 | 13.83392 | 35016 ft | 476 kts | 30° |
| 2026-05-08 13:33 | 44.45978 | 13.88059 | 35020 ft | 476 kts | 29° |
| 2026-05-08 13:33 | 44.51696 | 13.92768 | 35024 ft | 477 kts | 30° |
| 2026-05-08 13:34 | 44.57367 | 13.97446 | 35019 ft | 476 kts | 30° |
| 2026-05-08 13:34 | 44.63069 | 14.02166 | 35021 ft | 478 kts | 30° |
| 2026-05-08 13:35 | 44.68793 | 14.06914 | 35015 ft | 478 kts | 30° |
| 2026-05-08 13:35 | 44.74499 | 14.11657 | 35024 ft | 478 kts | 30° |
| 2026-05-08 13:36 | 44.80214 | 14.16419 | 35022 ft | 479 kts | 30° |
| 2026-05-08 13:36 | 44.85937 | 14.21201 | 35026 ft | 479 kts | 30° |
| 2026-05-08 13:37 | 44.91649 | 14.25984 | 35023 ft | 480 kts | 30° |
| 2026-05-08 13:37 | 44.97386 | 14.30796 | 35020 ft | 480 kts | 30° |
| 2026-05-08 13:38 | 45.03076 | 14.35581 | 35020 ft | 480 kts | 30° |
| 2026-05-08 13:38 | 45.08828 | 14.40429 | 35020 ft | 481 kts | 30° |
| 2026-05-08 13:39 | 45.14531 | 14.45250 | 35023 ft | 480 kts | 30° |
| 2026-05-08 13:39 | 45.20262 | 14.50105 | 35020 ft | 481 kts | 30° |
| 2026-05-08 13:40 | 45.26001 | 14.54977 | 35026 ft | 481 kts | 30° |
| 2026-05-08 13:40 | 45.31713 | 14.59841 | 35043 ft | 481 kts | 29° |
| 2026-05-08 13:41 | 45.37484 | 14.64763 | 35054 ft | 482 kts | 30° |
| 2026-05-08 13:41 | 45.43203 | 14.69652 | 35058 ft | 483 kts | 30° |
| 2026-05-08 13:42 | 45.48939 | 14.74571 | 35049 ft | 483 kts | 30° |
| 2026-05-08 13:42 | 45.54678 | 14.79502 | 35044 ft | 482 kts | 30° |
| 2026-05-08 13:43 | 45.60397 | 14.84428 | 35047 ft | 482 kts | 30° |
| 2026-05-08 13:43 | 45.66139 | 14.89387 | 35049 ft | 481 kts | 30° |
| 2026-05-08 13:44 | 45.71836 | 14.94316 | 35048 ft | 482 kts | 30° |
| 2026-05-08 13:44 | 45.77553 | 14.99278 | 35051 ft | 482 kts | 30° |
| 2026-05-08 13:45 | 45.83262 | 15.04244 | 35053 ft | 482 kts | 30° |
| 2026-05-08 13:45 | 45.88999 | 15.09245 | 35055 ft | 483 kts | 30° |
| 2026-05-08 13:46 | 45.94689 | 15.14219 | 35046 ft | 483 kts | 30° |
| 2026-05-08 13:46 | 46.00412 | 15.19233 | 35044 ft | 483 kts | 30° |
| 2026-05-08 13:47 | 46.06157 | 15.24281 | 35050 ft | 483 kts | 30° |
| 2026-05-08 13:47 | 46.11854 | 15.29298 | 35045 ft | 484 kts | 30° |
| 2026-05-08 13:48 | 46.17612 | 15.34381 | 35039 ft | 485 kts | 30° |
| 2026-05-08 13:48 | 46.23333 | 15.39446 | 35046 ft | 485 kts | 30° |
| 2026-05-08 13:49 | 46.29066 | 15.44533 | 35047 ft | 486 kts | 30° |
| 2026-05-08 13:49 | 46.34807 | 15.49639 | 35059 ft | 486 kts | 30° |
| 2026-05-08 13:50 | 46.40546 | 15.54756 | 35078 ft | 486 kts | 29° |
| 2026-05-08 13:50 | 46.46313 | 15.59911 | 35080 ft | 487 kts | 29° |
| 2026-05-08 13:51 | 46.52039 | 15.65040 | 35081 ft | 487 kts | 30° |
| 2026-05-08 13:51 | 46.57839 | 15.70249 | 35073 ft | 488 kts | 30° |
| 2026-05-08 13:52 | 46.63568 | 15.75408 | 35059 ft | 489 kts | 30° |
| 2026-05-08 13:52 | 46.69332 | 15.80616 | 35048 ft | 489 kts | 30° |
| 2026-05-08 13:53 | 46.75119 | 15.85857 | 35052 ft | 490 kts | 29° |
| 2026-05-08 13:53 | 46.80885 | 15.91092 | 35042 ft | 489 kts | 29° |
| 2026-05-08 13:54 | 46.86632 | 15.96321 | 35042 ft | 488 kts | 29° |
| 2026-05-08 13:54 | 46.92390 | 16.01573 | 35044 ft | 489 kts | 29° |
| 2026-05-08 13:55 | 46.98124 | 16.06817 | 35032 ft | 488 kts | 29° |
| 2026-05-08 13:56 | 47.06737 | 16.14715 | 35035 ft | 489 kts | 29° |
| 2026-05-08 13:56 | 47.12513 | 16.20033 | 35030 ft | 490 kts | 29° |
| 2026-05-08 13:57 | 47.18257 | 16.25333 | 35036 ft | 490 kts | 29° |
| 2026-05-08 13:57 | 47.24045 | 16.30686 | 35040 ft | 492 kts | 29° |
| 2026-05-08 13:58 | 47.29784 | 16.36011 | 35041 ft | 491 kts | 29° |
| 2026-05-08 13:58 | 47.35541 | 16.41363 | 35043 ft | 492 kts | 29° |
| 2026-05-08 13:59 | 47.41308 | 16.46742 | 35045 ft | 491 kts | 28° |
| 2026-05-08 13:59 | 47.47094 | 16.52151 | 35044 ft | 491 kts | 28° |
| 2026-05-08 14:00 | 47.52821 | 16.57519 | 35041 ft | 492 kts | 28° |
| 2026-05-08 14:00 | 47.58601 | 16.62950 | 35036 ft | 492 kts | 28° |
| 2026-05-08 14:01 | 47.64350 | 16.68366 | 35029 ft | 492 kts | 29° |
| 2026-05-08 14:01 | 47.70107 | 16.73805 | 35028 ft | 492 kts | 29° |
| 2026-05-08 14:02 | 47.75880 | 16.79276 | 35026 ft | 493 kts | 29° |
| 2026-05-08 14:02 | 47.81665 | 16.84772 | 35027 ft | 493 kts | 28° |
| 2026-05-08 14:03 | 47.87421 | 16.90253 | 35028 ft | 492 kts | 28° |
| 2026-05-08 14:03 | 47.93161 | 16.95734 | 35030 ft | 492 kts | 28° |
| 2026-05-08 14:04 | 47.98917 | 17.01242 | 35034 ft | 492 kts | 28° |
| 2026-05-08 14:04 | 48.04590 | 17.06842 | 35026 ft | 494 kts | 32° |
| 2026-05-08 14:05 | 48.09932 | 17.13381 | 35023 ft | 498 kts | 39° |
| 2026-05-08 14:05 | 48.14875 | 17.20621 | 35025 ft | 498 kts | 41° |
| 2026-05-08 14:06 | 48.19739 | 17.27902 | 35029 ft | 498 kts | 41° |
| 2026-05-08 14:06 | 48.24638 | 17.35217 | 35027 ft | 498 kts | 41° |
| 2026-05-08 14:07 | 48.29533 | 17.42523 | 35030 ft | 498 kts | 41° |
| 2026-05-08 14:07 | 48.34424 | 17.49829 | 35032 ft | 498 kts | 41° |
| 2026-05-08 14:08 | 48.39313 | 17.57155 | 35030 ft | 497 kts | 41° |
| 2026-05-08 14:08 | 48.44191 | 17.64481 | 35027 ft | 497 kts | 41° |
| 2026-05-08 14:09 | 48.49077 | 17.71843 | 35030 ft | 496 kts | 41° |
| 2026-05-08 14:09 | 48.53940 | 17.79194 | 35036 ft | 496 kts | 42° |
| 2026-05-08 14:10 | 48.58794 | 17.86552 | 35040 ft | 496 kts | 42° |
| 2026-05-08 14:10 | 48.63652 | 17.93937 | 35049 ft | 496 kts | 41° |
| 2026-05-08 14:11 | 48.68498 | 18.01326 | 35059 ft | 496 kts | 41° |
| 2026-05-08 14:11 | 48.73316 | 18.08699 | 35061 ft | 495 kts | 41° |
| 2026-05-08 14:12 | 48.78125 | 18.16069 | 35050 ft | 495 kts | 41° |
| 2026-05-08 14:12 | 48.82946 | 18.23489 | 35040 ft | 495 kts | 41° |
| 2026-05-08 14:13 | 48.87783 | 18.30949 | 35035 ft | 495 kts | 41° |
| 2026-05-08 14:13 | 48.92580 | 18.38372 | 35033 ft | 494 kts | 41° |
| 2026-05-08 14:14 | 48.97345 | 18.45763 | 35038 ft | 494 kts | 41° |
| 2026-05-08 14:14 | 49.02144 | 18.53230 | 35036 ft | 494 kts | 41° |
| 2026-05-08 14:15 | 49.06924 | 18.60686 | 35049 ft | 492 kts | 41° |
| 2026-05-08 14:15 | 49.11697 | 18.68158 | 35039 ft | 492 kts | 42° |
| 2026-05-08 14:16 | 49.16433 | 18.75593 | 35041 ft | 491 kts | 42° |
| 2026-05-08 14:16 | 49.21180 | 18.83071 | 35055 ft | 490 kts | 42° |
| 2026-05-08 14:17 | 49.25912 | 18.90544 | 35041 ft | 490 kts | 42° |
| 2026-05-08 14:17 | 49.30656 | 18.98056 | 35053 ft | 490 kts | 42° |
| 2026-05-08 14:18 | 49.35353 | 19.05519 | 35020 ft | 489 kts | 42° |
| 2026-05-08 14:18 | 49.40072 | 19.13040 | 35041 ft | 488 kts | 42° |
| 2026-05-08 14:19 | 49.44772 | 19.20553 | 35223 ft | 489 kts | 42° |
| 2026-05-08 14:19 | 49.47118 | 19.24311 | 35419 ft | 486 kts | 42° |
| 2026-05-08 14:19 | 49.49423 | 19.28008 | 35605 ft | 484 kts | 42° |
| 2026-05-08 14:19 | 49.51757 | 19.31759 | 35749 ft | 483 kts | 43° |
| 2026-05-08 14:20 | 49.54067 | 19.35477 | 35888 ft | 483 kts | 43° |
| 2026-05-08 14:20 | 49.56374 | 19.39195 | 36045 ft | 483 kts | 43° |
| 2026-05-08 14:20 | 49.58664 | 19.42901 | 36056 ft | 483 kts | 43° |
| 2026-05-08 14:21 | 49.62970 | 19.50859 | 36053 ft | 484 kts | 51° |
| 2026-05-08 14:21 | 49.66826 | 19.59281 | 36062 ft | 485 kts | 52° |
| 2026-05-08 14:22 | 49.70676 | 19.67857 | 35999 ft | 484 kts | 53° |
| 2026-05-08 14:22 | 49.74494 | 19.76350 | 35992 ft | 485 kts | 53° |
| 2026-05-08 14:23 | 49.78330 | 19.84893 | 35877 ft | 483 kts | 53° |
| 2026-05-08 14:23 | 49.82141 | 19.93401 | 36186 ft | 484 kts | 53° |
| 2026-05-08 14:23 | 49.84045 | 19.97665 | 35932 ft | 483 kts | 53° |
| 2026-05-08 14:24 | 49.85944 | 20.01924 | 35983 ft | 484 kts | 53° |
| 2026-05-08 14:24 | 49.89757 | 20.10490 | 36047 ft | 484 kts | 53° |
| 2026-05-08 14:25 | 49.93553 | 20.19047 | 36067 ft | 484 kts | 53° |
| 2026-05-08 14:25 | 49.97370 | 20.27681 | 36084 ft | 484 kts | 53° |
| 2026-05-08 14:26 | 50.01131 | 20.36221 | 36069 ft | 484 kts | 53° |
| 2026-05-08 14:26 | 50.03025 | 20.40535 | 35964 ft | 484 kts | 53° |
| 2026-05-08 14:26 | 50.04936 | 20.44855 | 35732 ft | 481 kts | 51° |
| 2026-05-08 14:27 | 50.09569 | 20.52083 | 35121 ft | 470 kts | 31° |
| 2026-05-08 14:27 | 50.12310 | 20.54701 | 34694 ft | 463 kts | 22° |
| 2026-05-08 14:27 | 50.15251 | 20.56620 | 34125 ft | 460 kts | 12° |
| 2026-05-08 14:27 | 50.18350 | 20.57810 | 33416 ft | 457 kts | 3° |
| 2026-05-08 14:28 | 50.21455 | 20.58319 | 32734 ft | 456 kts | 358° |
| 2026-05-08 14:28 | 50.24640 | 20.58626 | 32045 ft | 457 kts | 357° |
| 2026-05-08 14:28 | 50.27813 | 20.58898 | 31326 ft | 460 kts | 357° |
| 2026-05-08 14:28 | 50.31003 | 20.59185 | 30597 ft | 462 kts | 357° |
| 2026-05-08 14:29 | 50.34211 | 20.59486 | 29812 ft | 463 kts | 358° |
| 2026-05-08 14:29 | 50.37374 | 20.59796 | 29250 ft | 458 kts | 358° |
| 2026-05-08 14:29 | 50.40535 | 20.60119 | 28848 ft | 450 kts | 358° |
| 2026-05-08 14:29 | 50.43614 | 20.60438 | 28392 ft | 444 kts | 358° |
| 2026-05-08 14:30 | 50.46678 | 20.60756 | 27928 ft | 438 kts | 358° |
| 2026-05-08 14:30 | 50.49665 | 20.61065 | 27471 ft | 432 kts | 358° |
| 2026-05-08 14:30 | 50.52640 | 20.61373 | 27009 ft | 426 kts | 359° |
| 2026-05-08 14:30 | 50.55558 | 20.61675 | 26550 ft | 421 kts | 359° |
| 2026-05-08 14:31 | 50.58458 | 20.61973 | 26090 ft | 417 kts | 359° |
| 2026-05-08 14:31 | 50.61321 | 20.62269 | 25630 ft | 412 kts | 359° |
| 2026-05-08 14:31 | 50.64156 | 20.62564 | 25159 ft | 408 kts | 359° |
| 2026-05-08 14:32 | 50.69754 | 20.63150 | 24201 ft | 400 kts | 359° |
| 2026-05-08 14:32 | 50.72510 | 20.63439 | 23717 ft | 396 kts | 359° |
| 2026-05-08 14:32 | 50.75217 | 20.63725 | 23231 ft | 392 kts | 359° |
| 2026-05-08 14:32 | 50.77908 | 20.64009 | 22744 ft | 389 kts | 359° |
| 2026-05-08 14:33 | 50.80611 | 20.64294 | 22255 ft | 385 kts | 359° |
| 2026-05-08 14:33 | 50.83250 | 20.64573 | 21778 ft | 382 kts | 359° |
| 2026-05-08 14:33 | 50.85874 | 20.64850 | 21299 ft | 379 kts | 359° |
| 2026-05-08 14:33 | 50.88511 | 20.65130 | 20818 ft | 376 kts | 0° |
| 2026-05-08 14:34 | 50.91108 | 20.65404 | 20337 ft | 373 kts | 0° |
| 2026-05-08 14:34 | 50.93649 | 20.65673 | 19870 ft | 370 kts | 0° |
| 2026-05-08 14:34 | 50.96215 | 20.65948 | 19394 ft | 367 kts | 0° |
| 2026-05-08 14:34 | 50.98747 | 20.66217 | 18928 ft | 364 kts | 0° |
| 2026-05-08 14:35 | 51.01261 | 20.66485 | 18463 ft | 362 kts | 0° |
| 2026-05-08 14:35 | 51.03751 | 20.66750 | 17998 ft | 359 kts | 0° |
| 2026-05-08 14:35 | 51.06231 | 20.67013 | 17537 ft | 357 kts | 0° |
| 2026-05-08 14:35 | 51.08683 | 20.67273 | 17087 ft | 355 kts | 0° |
| 2026-05-08 14:36 | 51.11149 | 20.67536 | 16621 ft | 354 kts | 0° |
| 2026-05-08 14:36 | 51.13588 | 20.67797 | 16176 ft | 352 kts | 0° |
| 2026-05-08 14:36 | 51.16023 | 20.68059 | 15711 ft | 350 kts | 0° |
| 2026-05-08 14:36 | 51.18436 | 20.68319 | 15249 ft | 348 kts | 0° |
| 2026-05-08 14:37 | 51.20821 | 20.68622 | 14793 ft | 347 kts | 5° |
| 2026-05-08 14:37 | 51.23180 | 20.69563 | 14327 ft | 349 kts | 15° |
| 2026-05-08 14:37 | 51.25444 | 20.70785 | 13892 ft | 347 kts | 16° |
| 2026-05-08 14:37 | 51.27714 | 20.72042 | 13438 ft | 345 kts | 16° |
| 2026-05-08 14:38 | 51.29987 | 20.73273 | 12998 ft | 343 kts | 16° |
| 2026-05-08 14:38 | 51.32241 | 20.74464 | 12555 ft | 341 kts | 15° |
| 2026-05-08 14:38 | 51.34452 | 20.75613 | 12116 ft | 334 kts | 15° |
| 2026-05-08 14:38 | 51.36635 | 20.76738 | 11660 ft | 326 kts | 15° |
| 2026-05-08 14:39 | 51.38770 | 20.77832 | 11209 ft | 317 kts | 15° |
| 2026-05-08 14:39 | 51.40843 | 20.78890 | 10760 ft | 309 kts | 15° |
| 2026-05-08 14:39 | 51.42849 | 20.79912 | 10308 ft | 301 kts | 15° |
| 2026-05-08 14:39 | 51.44821 | 20.80916 | 9858 ft | 294 kts | 15° |
| 2026-05-08 14:40 | 51.46737 | 20.81891 | 9417 ft | 289 kts | 15° |
| 2026-05-08 14:40 | 51.48640 | 20.82858 | 8974 ft | 289 kts | 15° |
| 2026-05-08 14:40 | 51.50493 | 20.84139 | 8518 ft | 293 kts | 30° |
| 2026-05-08 14:40 | 51.52142 | 20.86036 | 8136 ft | 293 kts | 36° |
| 2026-05-08 14:41 | 51.53732 | 20.88052 | 7821 ft | 289 kts | 37° |
| 2026-05-08 14:41 | 51.55272 | 20.90046 | 7514 ft | 282 kts | 37° |
| 2026-05-08 14:41 | 51.56778 | 20.92006 | 7202 ft | 274 kts | 37° |
| 2026-05-08 14:41 | 51.58230 | 20.93899 | 6916 ft | 272 kts | 37° |
| 2026-05-08 14:42 | 51.59705 | 20.95830 | 6613 ft | 270 kts | 37° |
| 2026-05-08 14:42 | 51.61223 | 20.97525 | 6295 ft | 265 kts | 20° |
| 2026-05-08 14:42 | 51.62963 | 20.98244 | 6122 ft | 259 kts | 6° |
| 2026-05-08 14:42 | 51.64729 | 20.98642 | 6018 ft | 249 kts | 5° |
| 2026-05-08 14:43 | 51.66404 | 20.99023 | 5906 ft | 238 kts | 6° |
| 2026-05-08 14:43 | 51.68017 | 20.99434 | 5792 ft | 236 kts | 7° |
| 2026-05-08 14:43 | 51.69622 | 20.99882 | 5668 ft | 236 kts | 7° |
| 2026-05-08 14:43 | 51.71249 | 21.00363 | 5542 ft | 235 kts | 8° |
| 2026-05-08 14:44 | 51.72832 | 21.00849 | 5417 ft | 234 kts | 8° |
| 2026-05-08 14:44 | 51.74431 | 21.01350 | 5296 ft | 234 kts | 8° |
| 2026-05-08 14:44 | 51.76021 | 21.01855 | 5170 ft | 233 kts | 8° |
| 2026-05-08 14:44 | 51.77610 | 21.02362 | 5044 ft | 232 kts | 8° |
| 2026-05-08 14:45 | 51.79203 | 21.02873 | 4921 ft | 232 kts | 8° |
| 2026-05-08 14:45 | 51.80778 | 21.03380 | 4803 ft | 231 kts | 9° |
| 2026-05-08 14:45 | 51.82351 | 21.03887 | 4686 ft | 231 kts | 9° |
| 2026-05-08 14:45 | 51.83911 | 21.04389 | 4562 ft | 230 kts | 9° |
| 2026-05-08 14:46 | 51.85478 | 21.04894 | 4438 ft | 229 kts | 9° |
| 2026-05-08 14:46 | 51.87038 | 21.05399 | 4314 ft | 228 kts | 9° |
| 2026-05-08 14:46 | 51.88594 | 21.05904 | 4192 ft | 227 kts | 9° |
| 2026-05-08 14:46 | 51.90137 | 21.06450 | 4060 ft | 227 kts | 16° |
| 2026-05-08 14:47 | 51.91447 | 21.07812 | 3922 ft | 231 kts | 48° |
| 2026-05-08 14:47 | 51.92120 | 21.10171 | 3790 ft | 235 kts | 81° |
| 2026-05-08 14:47 | 51.91984 | 21.12750 | 3670 ft | 228 kts | 102° |
| 2026-05-08 14:47 | 51.91565 | 21.15184 | 3536 ft | 219 kts | 101° |
| 2026-05-08 14:48 | 51.91575 | 21.17520 | 3348 ft | 205 kts | 62° |
| 2026-05-08 14:48 | 51.92479 | 21.19092 | 3209 ft | 186 kts | 22° |
| 2026-05-08 14:48 | 51.93707 | 21.19596 | 3088 ft | 179 kts | 357° |
| 2026-05-08 14:48 | 51.94912 | 21.19229 | 2969 ft | 177 kts | 334° |
| 2026-05-08 14:49 | 51.95908 | 21.18100 | 2980 ft | 177 kts | 317° |
| 2026-05-08 14:49 | 51.96804 | 21.16718 | 3055 ft | 179 kts | 316° |
| 2026-05-08 14:49 | 51.97708 | 21.15336 | 2998 ft | 178 kts | 317° |
| 2026-05-08 14:49 | 51.98608 | 21.13987 | 2976 ft | 177 kts | 317° |
| 2026-05-08 14:50 | 51.99518 | 21.12640 | 2967 ft | 177 kts | 318° |
| 2026-05-08 14:50 | 52.00433 | 21.11301 | 2960 ft | 176 kts | 320° |
| 2026-05-08 14:50 | 52.01414 | 21.10102 | 2962 ft | 176 kts | 326° |
| 2026-05-08 14:50 | 52.02454 | 21.09067 | 2962 ft | 176 kts | 330° |
| 2026-05-08 14:51 | 52.03542 | 21.08096 | 2956 ft | 177 kts | 332° |
| 2026-05-08 14:51 | 52.04617 | 21.07162 | 2792 ft | 176 kts | 332° |
| 2026-05-08 14:51 | 52.05698 | 21.06224 | 2555 ft | 176 kts | 331° |
| 2026-05-08 14:51 | 52.06770 | 21.05289 | 2313 ft | 171 kts | 332° |
| 2026-05-08 14:52 | 52.07766 | 21.04417 | 2099 ft | 154 kts | 332° |
| 2026-05-08 14:52 | 52.09548 | 21.02857 | 1686 ft | 139 kts | 331° |
| 2026-05-08 14:52 | 52.10406 | 21.02108 | 1507 ft | 138 kts | 330° |
| 2026-05-08 14:53 | 52.11244 | 21.01374 | 1334 ft | 137 kts | 332° |
| 2026-05-08 14:53 | 52.12084 | 21.00640 | 1152 ft | 137 kts | 331° |
| 2026-05-08 14:53 | 52.12922 | 20.99907 | 968 ft | 136 kts | 332° |
| 2026-05-08 14:53 | 52.13755 | 20.99180 | 779 ft | 136 kts | 330° |
| 2026-05-08 14:54 | 52.14588 | 20.98449 | 597 ft | 136 kts | 332° |
| 2026-05-08 14:54 | 52.15419 | 20.97718 | 419 ft | 135 kts | 331° |
| 2026-05-08 14:54 | 52.16217 | 20.97024 | 366 ft | 115 kts | 331° |
| 2026-05-08 14:54 | 52.16772 | 20.96531 | 366 ft | 67 kts | 331° |
| 2026-05-08 14:55 | 52.17117 | 20.96264 | 366 ft | 35 kts | 347° |
| 2026-05-08 14:55 | 52.17251 | 20.96244 | 366 ft | 8 kts | 2° |
| 2026-05-08 14:55 | 52.17307 | 20.96247 | 366 ft | 8 kts | 2° |
| 2026-05-08 14:55 | 52.17368 | 20.96258 | 366 ft | 9 kts | 24° |
| 2026-05-08 14:56 | 52.17412 | 20.96337 | 366 ft | 10 kts | 63° |
| 2026-05-08 14:56 | 52.17446 | 20.96442 | 366 ft | 10 kts | 61° |
| 2026-05-08 14:56 | 52.17482 | 20.96540 | 366 ft | 10 kts | 52° |
| 2026-05-08 14:56 | 52.17529 | 20.96636 | 366 ft | 11 kts | 59° |
| 2026-05-08 14:57 | 52.17571 | 20.96746 | 366 ft | 11 kts | 58° |
| 2026-05-08 14:57 | 52.17613 | 20.96855 | 366 ft | 10 kts | 57° |
| 2026-05-08 14:57 | 52.17616 | 20.96945 | 366 ft | 8 kts | 128° |
| 2026-05-08 14:57 | 52.17565 | 20.97000 | 366 ft | 8 kts | 151° |
| 2026-05-08 14:58 | 52.17545 | 20.97016 | 366 ft | 1 kts | 166° |
| 2026-05-08 14:58 | 52.17535 | 20.97006 | 366 ft | 2 kts | 236° |
| 2026-05-08 14:58 | 52.17524 | 20.96968 | 366 ft | 3 kts | 241° |
| 2026-05-08 14:58 | 52.17511 | 20.96931 | 366 ft | 3 kts | 241° |
| 2026-05-08 14:59 | 52.17508 | 20.96923 | 366 ft | 0 kts | 241° |